sensor_id;sensor_type;location;lat;lon;timestamp;temperature;humidity
1830;DHT22;914;48.118;11.600;2023-03-05T00:01:19;3.20;87.20
1830;DHT22;914;48.118;11.600;2023-03-05T00:03:47;2.90;88.20
1830;DHT22;914;48.118;11.600;2023-03-05T00:06:13;2.90;88.50
1830;DHT22;914;48.118;11.600;2023-03-05T00:08:39;2.90;89.30
1830;DHT22;914;48.118;11.600;2023-03-05T00:11:07;2.90;88.60
1830;DHT22;914;48.118;11.600;2023-03-05T00:13:33;3.00;88.80
1830;DHT22;914;48.118;11.600;2023-03-05T00:16:04;3.20;87.90
1830;DHT22;914;48.118;11.600;2023-03-05T00:18:30;3.20;88.40
1830;DHT22;914;48.118;11.600;2023-03-05T00:20:56;3.10;87.80
1830;DHT22;914;48.118;11.600;2023-03-05T00:23:22;2.90;88.60
1830;DHT22;914;48.118;11.600;2023-03-05T00:25:47;3.20;88.60
1830;DHT22;914;48.118;11.600;2023-03-05T00:28:13;3.30;87.80
1830;DHT22;914;48.118;11.600;2023-03-05T00:30:39;3.50;87.00
1830;DHT22;914;48.118;11.600;2023-03-05T00:33:05;3.10;87.40
1830;DHT22;914;48.118;11.600;2023-03-05T00:35:31;2.90;88.10
1830;DHT22;914;48.118;11.600;2023-03-05T00:38:02;2.80;89.00
1830;DHT22;914;48.118;11.600;2023-03-05T00:40:28;2.90;89.00
1830;DHT22;914;48.118;11.600;2023-03-05T00:42:53;3.00;89.30
1830;DHT22;914;48.118;11.600;2023-03-05T00:45:19;2.90;89.10
1830;DHT22;914;48.118;11.600;2023-03-05T00:47:45;3.00;89.00
1830;DHT22;914;48.118;11.600;2023-03-05T00:50:10;2.90;88.90
1830;DHT22;914;48.118;11.600;2023-03-05T00:52:36;2.90;89.40
1830;DHT22;914;48.118;11.600;2023-03-05T00:55:02;2.90;89.10
1830;DHT22;914;48.118;11.600;2023-03-05T00:57:28;3.00;89.20
1830;DHT22;914;48.118;11.600;2023-03-05T00:59:53;3.10;88.90
1830;DHT22;914;48.118;11.600;2023-03-05T01:02:19;3.00;88.80
1830;DHT22;914;48.118;11.600;2023-03-05T01:04:45;3.00;89.40
1830;DHT22;914;48.118;11.600;2023-03-05T01:07:12;3.10;88.90
1830;DHT22;914;48.118;11.600;2023-03-05T01:09:37;2.90;89.00
1830;DHT22;914;48.118;11.600;2023-03-05T01:12:03;3.10;89.60
1830;DHT22;914;48.118;11.600;2023-03-05T01:14:29;3.10;89.10
1830;DHT22;914;48.118;11.600;2023-03-05T01:16:55;3.00;89.00
1830;DHT22;914;48.118;11.600;2023-03-05T01:19:23;2.80;89.20
1830;DHT22;914;48.118;11.600;2023-03-05T01:21:49;2.90;89.80
1830;DHT22;914;48.118;11.600;2023-03-05T01:24:14;3.60;87.80
1830;DHT22;914;48.118;11.600;2023-03-05T01:26:40;3.50;86.90
1830;DHT22;914;48.118;11.600;2023-03-05T01:29:06;3.40;87.60
1830;DHT22;914;48.118;11.600;2023-03-05T01:31:31;3.00;88.00
1830;DHT22;914;48.118;11.600;2023-03-05T01:33:57;3.20;89.00
1830;DHT22;914;48.118;11.600;2023-03-05T01:36:24;3.20;87.60
1830;DHT22;914;48.118;11.600;2023-03-05T01:38:50;3.00;88.20
1830;DHT22;914;48.118;11.600;2023-03-05T01:41:17;2.80;88.90
1830;DHT22;914;48.118;11.600;2023-03-05T01:43:44;2.70;89.50
1830;DHT22;914;48.118;11.600;2023-03-05T01:46:20;2.80;89.90
1830;DHT22;914;48.118;11.600;2023-03-05T01:48:49;3.00;89.90
1830;DHT22;914;48.118;11.600;2023-03-05T01:51:18;3.00;89.60
1830;DHT22;914;48.118;11.600;2023-03-05T01:53:45;2.90;89.20
1830;DHT22;914;48.118;11.600;2023-03-05T01:56:11;3.10;90.00
1830;DHT22;914;48.118;11.600;2023-03-05T01:58:37;3.20;89.00
1830;DHT22;914;48.118;11.600;2023-03-05T02:01:04;3.10;89.00
1830;DHT22;914;48.118;11.600;2023-03-05T02:03:31;3.10;89.10
1830;DHT22;914;48.118;11.600;2023-03-05T02:05:57;3.20;88.30
1830;DHT22;914;48.118;11.600;2023-03-05T02:08:23;3.20;89.00
1830;DHT22;914;48.118;11.600;2023-03-05T02:10:52;3.20;89.20
1830;DHT22;914;48.118;11.600;2023-03-05T02:13:25;3.50;88.40
1830;DHT22;914;48.118;11.600;2023-03-05T02:15:52;3.30;88.70
1830;DHT22;914;48.118;11.600;2023-03-05T02:18:20;3.30;89.30
1830;DHT22;914;48.118;11.600;2023-03-05T02:20:47;3.20;89.40
1830;DHT22;914;48.118;11.600;2023-03-05T02:23:14;3.50;89.80
1830;DHT22;914;48.118;11.600;2023-03-05T02:25:40;3.50;88.40
1830;DHT22;914;48.118;11.600;2023-03-05T02:28:22;3.40;88.30
1830;DHT22;914;48.118;11.600;2023-03-05T02:30:48;3.30;89.10
1830;DHT22;914;48.118;11.600;2023-03-05T02:33:15;3.30;89.40
1830;DHT22;914;48.118;11.600;2023-03-05T02:35:42;3.30;89.70
1830;DHT22;914;48.118;11.600;2023-03-05T02:38:09;3.50;89.30
1830;DHT22;914;48.118;11.600;2023-03-05T02:40:35;3.20;89.20
1830;DHT22;914;48.118;11.600;2023-03-05T02:43:01;3.20;90.00
1830;DHT22;914;48.118;11.600;2023-03-05T02:45:27;3.20;90.00
1830;DHT22;914;48.118;11.600;2023-03-05T02:47:52;3.10;89.70
1830;DHT22;914;48.118;11.600;2023-03-05T02:50:19;3.20;89.60
1830;DHT22;914;48.118;11.600;2023-03-05T02:52:46;3.20;90.10
1830;DHT22;914;48.118;11.600;2023-03-05T02:55:11;3.10;90.00
1830;DHT22;914;48.118;11.600;2023-03-05T02:57:37;3.30;90.00
1830;DHT22;914;48.118;11.600;2023-03-05T03:00:04;3.20;90.00
1830;DHT22;914;48.118;11.600;2023-03-05T03:02:30;3.20;90.00
1830;DHT22;914;48.118;11.600;2023-03-05T03:04:56;3.00;90.10
1830;DHT22;914;48.118;11.600;2023-03-05T03:07:22;3.00;90.40
1830;DHT22;914;48.118;11.600;2023-03-05T03:09:47;3.10;91.00
1830;DHT22;914;48.118;11.600;2023-03-05T03:12:13;3.00;90.80
1830;DHT22;914;48.118;11.600;2023-03-05T03:14:40;2.90;90.90
1830;DHT22;914;48.118;11.600;2023-03-05T03:17:12;2.90;91.00
1830;DHT22;914;48.118;11.600;2023-03-05T03:19:38;2.90;91.10
1830;DHT22;914;48.118;11.600;2023-03-05T03:22:04;3.40;90.70
1830;DHT22;914;48.118;11.600;2023-03-05T03:24:32;3.40;90.20
1830;DHT22;914;48.118;11.600;2023-03-05T03:26:58;3.30;90.60
1830;DHT22;914;48.118;11.600;2023-03-05T03:29:23;3.20;90.50
1830;DHT22;914;48.118;11.600;2023-03-05T03:31:49;3.10;90.70
1830;DHT22;914;48.118;11.600;2023-03-05T03:34:16;3.00;90.90
1830;DHT22;914;48.118;11.600;2023-03-05T03:36:45;2.90;91.30
1830;DHT22;914;48.118;11.600;2023-03-05T03:39:15;3.00;91.40
1830;DHT22;914;48.118;11.600;2023-03-05T03:41:43;3.00;91.50
1830;DHT22;914;48.118;11.600;2023-03-05T03:44:09;3.00;91.60
1830;DHT22;914;48.118;11.600;2023-03-05T03:46:37;3.20;91.30
1830;DHT22;914;48.118;11.600;2023-03-05T03:49:03;3.20;91.20
1830;DHT22;914;48.118;11.600;2023-03-05T03:51:29;3.10;91.40
1830;DHT22;914;48.118;11.600;2023-03-05T03:53:55;3.40;91.70
1830;DHT22;914;48.118;11.600;2023-03-05T03:56:20;3.40;91.20
1830;DHT22;914;48.118;11.600;2023-03-05T03:58:49;3.40;91.00
1830;DHT22;914;48.118;11.600;2023-03-05T04:01:15;3.20;91.30
1830;DHT22;914;48.118;11.600;2023-03-05T04:03:41;3.20;91.60
1830;DHT22;914;48.118;11.600;2023-03-05T04:06:07;3.10;91.80
1830;DHT22;914;48.118;11.600;2023-03-05T04:08:32;3.10;91.80
1830;DHT22;914;48.118;11.600;2023-03-05T04:11:00;3.10;92.00
1830;DHT22;914;48.118;11.600;2023-03-05T04:13:26;3.20;92.10
1830;DHT22;914;48.118;11.600;2023-03-05T04:15:52;3.40;92.00
1830;DHT22;914;48.118;11.600;2023-03-05T04:18:18;3.40;91.60
1830;DHT22;914;48.118;11.600;2023-03-05T04:20:43;3.30;91.50
1830;DHT22;914;48.118;11.600;2023-03-05T04:23:09;3.30;91.80
1830;DHT22;914;48.118;11.600;2023-03-05T04:25:35;3.40;91.60
1830;DHT22;914;48.118;11.600;2023-03-05T04:28:00;3.50;91.50
1830;DHT22;914;48.118;11.600;2023-03-05T04:30:29;3.60;91.40
1830;DHT22;914;48.118;11.600;2023-03-05T04:32:55;3.50;91.40
1830;DHT22;914;48.118;11.600;2023-03-05T04:35:21;3.30;91.40
1830;DHT22;914;48.118;11.600;2023-03-05T04:37:47;3.30;91.70
1830;DHT22;914;48.118;11.600;2023-03-05T04:40:13;3.20;91.60
1830;DHT22;914;48.118;11.600;2023-03-05T04:42:38;3.30;91.80
1830;DHT22;914;48.118;11.600;2023-03-05T04:45:05;3.50;91.60
1830;DHT22;914;48.118;11.600;2023-03-05T04:47:32;3.80;91.70
1830;DHT22;914;48.118;11.600;2023-03-05T04:49:57;3.90;90.80
1830;DHT22;914;48.118;11.600;2023-03-05T04:52:23;3.80;90.90
1830;DHT22;914;48.118;11.600;2023-03-05T04:54:49;4.10;90.80
1830;DHT22;914;48.118;11.600;2023-03-05T04:57:29;4.50;90.00
1830;DHT22;914;48.118;11.600;2023-03-05T04:59:55;4.30;89.60
1830;DHT22;914;48.118;11.600;2023-03-05T05:02:20;4.30;90.10
1830;DHT22;914;48.118;11.600;2023-03-05T05:04:46;4.20;90.00
1830;DHT22;914;48.118;11.600;2023-03-05T05:07:12;4.20;89.60
1830;DHT22;914;48.118;11.600;2023-03-05T05:09:37;4.40;89.80
1830;DHT22;914;48.118;11.600;2023-03-05T05:12:05;4.30;90.10
1830;DHT22;914;48.118;11.600;2023-03-05T05:14:32;4.20;90.00
1830;DHT22;914;48.118;11.600;2023-03-05T05:16:58;3.90;90.20
1830;DHT22;914;48.118;11.600;2023-03-05T05:19:24;3.60;90.70
1830;DHT22;914;48.118;11.600;2023-03-05T05:21:50;3.60;90.90
1830;DHT22;914;48.118;11.600;2023-03-05T05:24:15;3.50;90.90
1830;DHT22;914;48.118;11.600;2023-03-05T05:26:41;3.40;91.10
1830;DHT22;914;48.118;11.600;2023-03-05T05:29:07;3.50;91.20
1830;DHT22;914;48.118;11.600;2023-03-05T05:31:32;3.70;91.60
1830;DHT22;914;48.118;11.600;2023-03-05T05:33:58;3.80;91.00
1830;DHT22;914;48.118;11.600;2023-03-05T05:36:23;4.00;90.80
1830;DHT22;914;48.118;11.600;2023-03-05T05:38:49;4.10;90.40
1830;DHT22;914;48.118;11.600;2023-03-05T05:41:16;4.20;90.20
1830;DHT22;914;48.118;11.600;2023-03-05T05:43:42;4.00;90.20
1830;DHT22;914;48.118;11.600;2023-03-05T05:46:12;3.90;90.40
1830;DHT22;914;48.118;11.600;2023-03-05T05:48:38;3.90;90.70
1830;DHT22;914;48.118;11.600;2023-03-05T05:51:11;4.00;90.70
1830;DHT22;914;48.118;11.600;2023-03-05T05:53:37;4.20;90.10
1830;DHT22;914;48.118;11.600;2023-03-05T05:56:04;4.40;90.10
1830;DHT22;914;48.118;11.600;2023-03-05T05:58:30;4.30;90.10
1830;DHT22;914;48.118;11.600;2023-03-05T06:00:57;4.40;90.10
1830;DHT22;914;48.118;11.600;2023-03-05T06:03:22;4.30;89.90
1830;DHT22;914;48.118;11.600;2023-03-05T06:05:48;4.20;90.30
1830;DHT22;914;48.118;11.600;2023-03-05T06:08:16;4.20;90.30
1830;DHT22;914;48.118;11.600;2023-03-05T06:10:42;4.10;90.20
1830;DHT22;914;48.118;11.600;2023-03-05T06:13:07;4.30;90.40
1830;DHT22;914;48.118;11.600;2023-03-05T06:15:33;4.20;90.10
1830;DHT22;914;48.118;11.600;2023-03-05T06:17:59;4.20;90.00
1830;DHT22;914;48.118;11.600;2023-03-05T06:20:25;4.20;90.00
1830;DHT22;914;48.118;11.600;2023-03-05T06:22:52;4.50;90.00
1830;DHT22;914;48.118;11.600;2023-03-05T06:25:17;4.30;90.30
1830;DHT22;914;48.118;11.600;2023-03-05T06:27:43;4.40;90.30
1830;DHT22;914;48.118;11.600;2023-03-05T06:30:10;4.30;90.20
1830;DHT22;914;48.118;11.600;2023-03-05T06:32:36;4.10;90.50
1830;DHT22;914;48.118;11.600;2023-03-05T06:35:02;4.30;90.90
1830;DHT22;914;48.118;11.600;2023-03-05T06:37:27;4.50;90.40
1830;DHT22;914;48.118;11.600;2023-03-05T06:39:53;4.30;90.50
1830;DHT22;914;48.118;11.600;2023-03-05T06:42:19;4.30;90.30
1830;DHT22;914;48.118;11.600;2023-03-05T06:44:44;4.30;90.90
1830;DHT22;914;48.118;11.600;2023-03-05T06:47:10;4.40;90.40
1830;DHT22;914;48.118;11.600;2023-03-05T06:49:37;4.50;90.20
1830;DHT22;914;48.118;11.600;2023-03-05T06:52:04;4.60;90.00
1830;DHT22;914;48.118;11.600;2023-03-05T06:54:31;4.60;90.30
1830;DHT22;914;48.118;11.600;2023-03-05T06:56:56;4.70;89.80
1830;DHT22;914;48.118;11.600;2023-03-05T06:59:22;4.70;89.70
1830;DHT22;914;48.118;11.600;2023-03-05T07:01:48;4.60;90.00
1830;DHT22;914;48.118;11.600;2023-03-05T07:04:14;4.40;90.40
1830;DHT22;914;48.118;11.600;2023-03-05T07:06:40;4.90;90.20
1830;DHT22;914;48.118;11.600;2023-03-05T07:09:07;5.00;88.50
1830;DHT22;914;48.118;11.600;2023-03-05T07:11:34;4.60;89.60
1830;DHT22;914;48.118;11.600;2023-03-05T07:14:00;4.30;90.30
1830;DHT22;914;48.118;11.600;2023-03-05T07:16:29;4.40;91.00
1830;DHT22;914;48.118;11.600;2023-03-05T07:18:56;4.40;90.80
1830;DHT22;914;48.118;11.600;2023-03-05T07:21:27;4.20;90.70
1830;DHT22;914;48.118;11.600;2023-03-05T07:23:58;4.10;91.60
1830;DHT22;914;48.118;11.600;2023-03-05T07:26:25;4.20;91.30
1830;DHT22;914;48.118;11.600;2023-03-05T07:28:51;4.10;91.70
1830;DHT22;914;48.118;11.600;2023-03-05T07:31:22;4.20;91.10
1830;DHT22;914;48.118;11.600;2023-03-05T07:33:52;4.30;91.20
1830;DHT22;914;48.118;11.600;2023-03-05T07:36:18;4.20;91.30
1830;DHT22;914;48.118;11.600;2023-03-05T07:38:44;4.10;91.40
1830;DHT22;914;48.118;11.600;2023-03-05T07:41:12;4.10;91.50
1830;DHT22;914;48.118;11.600;2023-03-05T07:43:40;4.30;91.40
1830;DHT22;914;48.118;11.600;2023-03-05T07:46:09;4.20;91.60
1830;DHT22;914;48.118;11.600;2023-03-05T07:48:35;4.20;91.60
1830;DHT22;914;48.118;11.600;2023-03-05T07:51:07;4.40;91.10
1830;DHT22;914;48.118;11.600;2023-03-05T07:53:33;4.50;90.90
1830;DHT22;914;48.118;11.600;2023-03-05T07:55:59;4.40;90.90
1830;DHT22;914;48.118;11.600;2023-03-05T07:58:25;4.60;91.00
1830;DHT22;914;48.118;11.600;2023-03-05T08:00:51;4.70;90.60
1830;DHT22;914;48.118;11.600;2023-03-05T08:03:17;4.50;91.20
1830;DHT22;914;48.118;11.600;2023-03-05T08:05:43;4.50;91.20
1830;DHT22;914;48.118;11.600;2023-03-05T08:08:08;4.40;91.40
1830;DHT22;914;48.118;11.600;2023-03-05T08:10:36;4.40;91.50
1830;DHT22;914;48.118;11.600;2023-03-05T08:13:02;4.30;91.50
1830;DHT22;914;48.118;11.600;2023-03-05T08:15:28;4.30;91.70
1830;DHT22;914;48.118;11.600;2023-03-05T08:17:56;4.50;91.50
1830;DHT22;914;48.118;11.600;2023-03-05T08:20:22;4.50;91.40
1830;DHT22;914;48.118;11.600;2023-03-05T08:22:48;4.70;90.90
1830;DHT22;914;48.118;11.600;2023-03-05T08:25:17;4.90;90.40
1830;DHT22;914;48.118;11.600;2023-03-05T08:27:44;4.50;91.10
1830;DHT22;914;48.118;11.600;2023-03-05T08:30:15;4.80;90.70
1830;DHT22;914;48.118;11.600;2023-03-05T08:32:44;4.70;90.90
1830;DHT22;914;48.118;11.600;2023-03-05T08:35:10;4.90;91.10
1830;DHT22;914;48.118;11.600;2023-03-05T08:37:36;5.00;90.60
1830;DHT22;914;48.118;11.600;2023-03-05T08:40:03;5.00;90.50
1830;DHT22;914;48.118;11.600;2023-03-05T08:42:29;5.30;90.10
1830;DHT22;914;48.118;11.600;2023-03-05T08:44:55;5.10;90.50
1830;DHT22;914;48.118;11.600;2023-03-05T08:47:24;5.00;90.30
1830;DHT22;914;48.118;11.600;2023-03-05T08:49:53;5.00;90.50
1830;DHT22;914;48.118;11.600;2023-03-05T08:52:22;5.00;90.60
1830;DHT22;914;48.118;11.600;2023-03-05T08:54:47;4.90;90.60
1830;DHT22;914;48.118;11.600;2023-03-05T08:57:13;4.80;91.00
1830;DHT22;914;48.118;11.600;2023-03-05T08:59:39;4.60;90.90
1830;DHT22;914;48.118;11.600;2023-03-05T09:02:05;4.60;91.30
1830;DHT22;914;48.118;11.600;2023-03-05T09:04:31;4.80;92.00
1830;DHT22;914;48.118;11.600;2023-03-05T09:06:57;4.70;91.30
1830;DHT22;914;48.118;11.600;2023-03-05T09:09:22;4.50;91.70
1830;DHT22;914;48.118;11.600;2023-03-05T09:11:48;4.80;92.10
1830;DHT22;914;48.118;11.600;2023-03-05T09:14:16;4.90;91.70
1830;DHT22;914;48.118;11.600;2023-03-05T09:16:42;5.00;91.50
1830;DHT22;914;48.118;11.600;2023-03-05T09:19:07;5.00;91.80
1830;DHT22;914;48.118;11.600;2023-03-05T09:21:35;5.20;91.80
1830;DHT22;914;48.118;11.600;2023-03-05T09:24:01;5.10;90.80
1830;DHT22;914;48.118;11.600;2023-03-05T09:26:28;5.20;91.20
1830;DHT22;914;48.118;11.600;2023-03-05T09:28:53;5.30;90.70
1830;DHT22;914;48.118;11.600;2023-03-05T09:31:19;5.70;90.50
1830;DHT22;914;48.118;11.600;2023-03-05T09:33:46;5.50;90.00
1830;DHT22;914;48.118;11.600;2023-03-05T09:36:19;5.40;90.10
1830;DHT22;914;48.118;11.600;2023-03-05T09:38:45;5.00;90.80
1830;DHT22;914;48.118;11.600;2023-03-05T09:44:24;5.30;91.00
1830;DHT22;914;48.118;11.600;2023-03-05T09:46:56;5.40;90.60
1830;DHT22;914;48.118;11.600;2023-03-05T09:49:49;5.30;91.20
1830;DHT22;914;48.118;11.600;2023-03-05T09:55:21;5.50;90.90
1830;DHT22;914;48.118;11.600;2023-03-05T09:57:51;5.80;90.30
1830;DHT22;914;48.118;11.600;2023-03-05T10:00:22;5.50;90.40
1830;DHT22;914;48.118;11.600;2023-03-05T10:02:53;5.40;90.20
1830;DHT22;914;48.118;11.600;2023-03-05T10:05:57;5.60;90.00
1830;DHT22;914;48.118;11.600;2023-03-05T10:08:31;5.60;90.20
1830;DHT22;914;48.118;11.600;2023-03-05T10:11:05;5.80;90.10
1830;DHT22;914;48.118;11.600;2023-03-05T10:13:37;5.60;90.10
1830;DHT22;914;48.118;11.600;2023-03-05T10:19:30;5.50;89.70
1830;DHT22;914;48.118;11.600;2023-03-05T10:22:21;5.40;90.80
1830;DHT22;914;48.118;11.600;2023-03-05T10:27:46;5.40;90.30
1830;DHT22;914;48.118;11.600;2023-03-05T10:40:46;5.90;90.40
1830;DHT22;914;48.118;11.600;2023-03-05T10:43:35;5.90;90.60
1830;DHT22;914;48.118;11.600;2023-03-05T10:46:03;5.80;89.60
1830;DHT22;914;48.118;11.600;2023-03-05T10:48:43;5.80;90.20
1830;DHT22;914;48.118;11.600;2023-03-05T10:51:22;5.50;90.00
1830;DHT22;914;48.118;11.600;2023-03-05T10:53:55;5.80;90.20
1830;DHT22;914;48.118;11.600;2023-03-05T10:56:24;5.70;89.60
1830;DHT22;914;48.118;11.600;2023-03-05T10:58:50;5.80;90.10
1830;DHT22;914;48.118;11.600;2023-03-05T11:04:04;6.10;89.90
1830;DHT22;914;48.118;11.600;2023-03-05T11:06:37;6.10;88.80
1830;DHT22;914;48.118;11.600;2023-03-05T11:09:29;5.60;90.30
1830;DHT22;914;48.118;11.600;2023-03-05T11:14:31;5.80;90.30
1830;DHT22;914;48.118;11.600;2023-03-05T11:17:10;5.70;90.60
1830;DHT22;914;48.118;11.600;2023-03-05T11:19:46;5.80;90.20
1830;DHT22;914;48.118;11.600;2023-03-05T11:22:22;6.00;90.30
1830;DHT22;914;48.118;11.600;2023-03-05T11:29:58;5.80;90.30
1830;DHT22;914;48.118;11.600;2023-03-05T11:32:28;6.00;90.20
1830;DHT22;914;48.118;11.600;2023-03-05T11:34:55;6.10;89.70
1830;DHT22;914;48.118;11.600;2023-03-05T11:37:30;6.30;88.40
1830;DHT22;914;48.118;11.600;2023-03-05T11:40:20;6.30;88.20
1830;DHT22;914;48.118;11.600;2023-03-05T11:42:53;6.10;89.00
1830;DHT22;914;48.118;11.600;2023-03-05T11:45:24;5.90;90.00
1830;DHT22;914;48.118;11.600;2023-03-05T11:47:53;5.70;89.90
1830;DHT22;914;48.118;11.600;2023-03-05T11:50:26;5.60;90.00
1830;DHT22;914;48.118;11.600;2023-03-05T11:56:19;6.20;89.80
1830;DHT22;914;48.118;11.600;2023-03-05T11:58:51;6.40;89.00
1830;DHT22;914;48.118;11.600;2023-03-05T12:01:28;6.00;90.00
1830;DHT22;914;48.118;11.600;2023-03-05T12:03:55;5.80;91.00
1830;DHT22;914;48.118;11.600;2023-03-05T12:06:38;5.90;90.80
1830;DHT22;914;48.118;11.600;2023-03-05T12:11:56;5.80;90.80
1830;DHT22;914;48.118;11.600;2023-03-05T12:14:35;6.00;90.60
1830;DHT22;914;48.118;11.600;2023-03-05T12:17:12;6.00;89.90
1830;DHT22;914;48.118;11.600;2023-03-05T12:22:37;6.10;89.10
1830;DHT22;914;48.118;11.600;2023-03-05T12:25:24;6.00;89.00
1830;DHT22;914;48.118;11.600;2023-03-05T12:27:51;6.20;88.50
1830;DHT22;914;48.118;11.600;2023-03-05T12:33:38;6.60;85.80
1830;DHT22;914;48.118;11.600;2023-03-05T12:38:48;6.40;83.70
1830;DHT22;914;48.118;11.600;2023-03-05T12:46:36;6.70;82.80
1830;DHT22;914;48.118;11.600;2023-03-05T12:51:45;6.70;84.20
1830;DHT22;914;48.118;11.600;2023-03-05T12:57:01;6.90;82.90
1830;DHT22;914;48.118;11.600;2023-03-05T12:59:53;6.90;83.40
1830;DHT22;914;48.118;11.600;2023-03-05T13:02:29;7.10;82.80
1830;DHT22;914;48.118;11.600;2023-03-05T13:05:04;6.90;82.60
1830;DHT22;914;48.118;11.600;2023-03-05T13:07:32;6.60;82.60
1830;DHT22;914;48.118;11.600;2023-03-05T13:09:58;6.40;83.00
1830;DHT22;914;48.118;11.600;2023-03-05T13:12:26;6.60;83.70
1830;DHT22;914;48.118;11.600;2023-03-05T13:15:00;6.40;81.90
1830;DHT22;914;48.118;11.600;2023-03-05T13:20:27;6.80;82.00
1830;DHT22;914;48.118;11.600;2023-03-05T13:23:13;6.60;80.00
1830;DHT22;914;48.118;11.600;2023-03-05T13:25:44;7.00;80.20
1830;DHT22;914;48.118;11.600;2023-03-05T13:28:13;6.80;80.80
1830;DHT22;914;48.118;11.600;2023-03-05T13:30:44;7.20;80.60
1830;DHT22;914;48.118;11.600;2023-03-05T13:33:17;7.20;79.00
1830;DHT22;914;48.118;11.600;2023-03-05T13:35:45;6.90;78.60
1830;DHT22;914;48.118;11.600;2023-03-05T13:38:32;6.80;79.30
1830;DHT22;914;48.118;11.600;2023-03-05T13:43:48;7.20;78.70
1830;DHT22;914;48.118;11.600;2023-03-05T13:46:22;7.10;78.50
1830;DHT22;914;48.118;11.600;2023-03-05T13:48:48;6.90;78.30
1830;DHT22;914;48.118;11.600;2023-03-05T13:51:14;7.20;78.50
1830;DHT22;914;48.118;11.600;2023-03-05T13:53:39;7.10;76.90
1830;DHT22;914;48.118;11.600;2023-03-05T13:56:13;6.90;78.00
1830;DHT22;914;48.118;11.600;2023-03-05T13:58:52;7.00;78.10
1830;DHT22;914;48.118;11.600;2023-03-05T14:01:33;6.70;79.80
1830;DHT22;914;48.118;11.600;2023-03-05T14:09:23;6.80;77.90
1830;DHT22;914;48.118;11.600;2023-03-05T14:14:18;6.70;77.00
1830;DHT22;914;48.118;11.600;2023-03-05T14:16:45;6.50;78.80
1830;DHT22;914;48.118;11.600;2023-03-05T14:19:31;6.70;78.60
1830;DHT22;914;48.118;11.600;2023-03-05T14:21:59;6.60;78.70
1830;DHT22;914;48.118;11.600;2023-03-05T14:24:25;6.60;79.00
1830;DHT22;914;48.118;11.600;2023-03-05T14:27:00;6.70;78.60
1830;DHT22;914;48.118;11.600;2023-03-05T14:29:30;6.30;79.90
1830;DHT22;914;48.118;11.600;2023-03-05T14:32:07;6.30;80.30
1830;DHT22;914;48.118;11.600;2023-03-05T14:34:41;6.40;80.50
1830;DHT22;914;48.118;11.600;2023-03-05T14:37:21;6.20;80.30
1830;DHT22;914;48.118;11.600;2023-03-05T14:39:59;5.90;81.50
1830;DHT22;914;48.118;11.600;2023-03-05T14:42:36;5.70;80.30
1830;DHT22;914;48.118;11.600;2023-03-05T14:47:36;5.80;82.00
1830;DHT22;914;48.118;11.600;2023-03-05T14:50:02;6.40;81.10
1830;DHT22;914;48.118;11.600;2023-03-05T14:52:30;6.50;78.70
1830;DHT22;914;48.118;11.600;2023-03-05T14:54:57;6.40;80.00
1830;DHT22;914;48.118;11.600;2023-03-05T14:57:27;6.60;78.60
1830;DHT22;914;48.118;11.600;2023-03-05T14:59:55;6.40;79.50
1830;DHT22;914;48.118;11.600;2023-03-05T15:02:23;6.20;80.20
1830;DHT22;914;48.118;11.600;2023-03-05T15:04:49;6.10;79.70
1830;DHT22;914;48.118;11.600;2023-03-05T15:07:28;6.20;80.40
1830;DHT22;914;48.118;11.600;2023-03-05T15:09:57;6.20;80.40
1830;DHT22;914;48.118;11.600;2023-03-05T15:12:24;6.30;80.20
1830;DHT22;914;48.118;11.600;2023-03-05T15:14:54;6.50;80.30
1830;DHT22;914;48.118;11.600;2023-03-05T15:17:24;6.50;79.70
1830;DHT22;914;48.118;11.600;2023-03-05T15:19:50;6.50;79.80
1830;DHT22;914;48.118;11.600;2023-03-05T15:22:16;6.50;80.40
1830;DHT22;914;48.118;11.600;2023-03-05T15:24:42;6.40;79.70
1830;DHT22;914;48.118;11.600;2023-03-05T15:27:08;6.30;81.20
1830;DHT22;914;48.118;11.600;2023-03-05T15:29:34;6.40;81.70
1830;DHT22;914;48.118;11.600;2023-03-05T15:32:00;6.60;81.60
1830;DHT22;914;48.118;11.600;2023-03-05T15:34:28;6.70;80.70
1830;DHT22;914;48.118;11.600;2023-03-05T15:36:54;6.50;81.60
1830;DHT22;914;48.118;11.600;2023-03-05T15:39:21;6.50;82.10
1830;DHT22;914;48.118;11.600;2023-03-05T15:41:49;6.30;81.50
1830;DHT22;914;48.118;11.600;2023-03-05T15:44:16;6.30;81.10
1830;DHT22;914;48.118;11.600;2023-03-05T15:46:41;6.20;81.10
1830;DHT22;914;48.118;11.600;2023-03-05T15:49:07;6.30;81.10
1830;DHT22;914;48.118;11.600;2023-03-05T15:51:33;5.80;82.10
1830;DHT22;914;48.118;11.600;2023-03-05T15:53:58;6.00;82.60
1830;DHT22;914;48.118;11.600;2023-03-05T15:56:25;6.20;82.50
1830;DHT22;914;48.118;11.600;2023-03-05T15:58:50;6.00;82.30
1830;DHT22;914;48.118;11.600;2023-03-05T16:01:16;6.40;82.40
1830;DHT22;914;48.118;11.600;2023-03-05T16:03:45;6.30;81.90
1830;DHT22;914;48.118;11.600;2023-03-05T16:06:12;6.40;81.60
1830;DHT22;914;48.118;11.600;2023-03-05T16:08:40;6.10;81.50
1830;DHT22;914;48.118;11.600;2023-03-05T16:11:07;5.70;82.20
1830;DHT22;914;48.118;11.600;2023-03-05T16:13:33;5.60;82.70
1830;DHT22;914;48.118;11.600;2023-03-05T16:16:02;6.10;82.20
1830;DHT22;914;48.118;11.600;2023-03-05T16:18:30;6.20;79.00
1830;DHT22;914;48.118;11.600;2023-03-05T16:20:57;5.90;80.40
1830;DHT22;914;48.118;11.600;2023-03-05T16:23:24;6.00;79.60
1830;DHT22;914;48.118;11.600;2023-03-05T16:25:51;6.00;79.90
1830;DHT22;914;48.118;11.600;2023-03-05T16:28:17;5.90;80.80
1830;DHT22;914;48.118;11.600;2023-03-05T16:30:43;5.80;80.30
1830;DHT22;914;48.118;11.600;2023-03-05T16:33:09;6.00;79.80
1830;DHT22;914;48.118;11.600;2023-03-05T16:35:34;5.70;78.70
1830;DHT22;914;48.118;11.600;2023-03-05T16:38:00;5.70;77.20
1830;DHT22;914;48.118;11.600;2023-03-05T16:40:26;5.60;77.50
1830;DHT22;914;48.118;11.600;2023-03-05T16:42:52;5.30;77.20
1830;DHT22;914;48.118;11.600;2023-03-05T16:45:18;5.40;78.10
1830;DHT22;914;48.118;11.600;2023-03-05T16:47:44;5.60;77.70
1830;DHT22;914;48.118;11.600;2023-03-05T16:50:10;5.70;76.90
1830;DHT22;914;48.118;11.600;2023-03-05T16:52:37;5.50;77.10
1830;DHT22;914;48.118;11.600;2023-03-05T16:55:03;5.60;77.40
1830;DHT22;914;48.118;11.600;2023-03-05T16:57:31;5.50;76.40
1830;DHT22;914;48.118;11.600;2023-03-05T16:59:57;5.70;76.80
1830;DHT22;914;48.118;11.600;2023-03-05T17:02:25;5.60;76.10
1830;DHT22;914;48.118;11.600;2023-03-05T17:04:50;5.30;75.60
1830;DHT22;914;48.118;11.600;2023-03-05T17:07:17;5.00;77.40
1830;DHT22;914;48.118;11.600;2023-03-05T17:09:43;5.20;76.40
1830;DHT22;914;48.118;11.600;2023-03-05T17:12:10;5.30;77.30
1830;DHT22;914;48.118;11.600;2023-03-05T17:14:36;5.50;76.60
1830;DHT22;914;48.118;11.600;2023-03-05T17:17:03;5.50;76.30
1830;DHT22;914;48.118;11.600;2023-03-05T17:19:32;5.90;76.20
1830;DHT22;914;48.118;11.600;2023-03-05T17:21:58;5.80;75.20
1830;DHT22;914;48.118;11.600;2023-03-05T17:24:23;5.90;75.70
1830;DHT22;914;48.118;11.600;2023-03-05T17:26:49;6.20;75.20
1830;DHT22;914;48.118;11.600;2023-03-05T17:29:15;6.00;74.70
1830;DHT22;914;48.118;11.600;2023-03-05T17:31:48;5.70;75.30
1830;DHT22;914;48.118;11.600;2023-03-05T17:34:15;5.80;75.20
1830;DHT22;914;48.118;11.600;2023-03-05T17:36:42;5.80;75.30
1830;DHT22;914;48.118;11.600;2023-03-05T17:39:09;5.90;75.20